Time;durP1;ratioP1;P1;durP2;ratioP2;P2;SDS_P1;SDS_P2;PMS_P1;PMS_P2;Temp;Humidity;BMP_temperature;BMP_pressure;BME280_temperature;BME280_humidity;BME280_pressure;Samples;Min_cycle;Max_cycle;Signal;HPM_P1;HPM_P2
2022/05/29 00:02:00;;;;;;;4.33;1.50;;;;;;;16.98;33.51;100238.88;5395469;32;35464;-68
2022/05/29 00:05:03;;;;;;;7.57;1.53;;;;;;;16.92;33.52;100242.78;5379687;32;34756;-70
2022/05/29 00:08:06;;;;;;;5.07;1.55;;;;;;;17.01;33.50;100238.69;5416521;32;35282;-67
2022/05/29 00:11:10;;;;;;;7.53;1.50;;;;;;;16.85;34.31;100233.53;5390060;32;34651;-66
2022/05/29 00:14:12;;;;;;;3.30;1.20;;;;;;;18.06;31.47;100222.44;5416200;32;34032;-70
2022/05/29 00:17:16;;;;;;;4.25;1.37;;;;;;;17.45;32.19;100224.13;5382412;32;44482;-69
2022/05/29 00:20:19;;;;;;;4.78;1.55;;;;;;;17.00;33.31;100227.22;5406191;32;34186;-70
2022/05/29 00:23:21;;;;;;;3.75;1.25;;;;;;;17.53;32.57;100224.44;5409436;32;34721;-66
2022/05/29 00:26:23;;;;;;;3.83;1.20;;;;;;;17.91;32.72;100211.13;5384764;32;35243;-70
2022/05/29 00:29:25;;;;;;;4.00;1.20;;;;;;;18.24;32.11;100209.59;5415612;32;34907;-69
2022/05/29 00:32:27;;;;;;;3.55;1.50;;;;;;;17.52;33.29;100207.66;5381276;32;35488;-67
2022/05/29 00:35:30;;;;;;;4.35;1.30;;;;;;;17.71;32.44;100207.22;5390020;32;34066;-67
2022/05/29 00:38:38;;;;;;;4.27;1.30;;;;;;;17.13;34.11;100210.41;5398026;32;34682;-70
2022/05/29 00:41:40;;;;;;;5.60;1.67;;;;;;;17.11;34.73;100207.88;5395110;32;35246;-70
2022/05/29 00:44:42;;;;;;;2.05;1.08;;;;;;;17.46;33.87;100201.94;5390685;32;34728;-67
2022/05/29 00:47:45;;;;;;;4.05;1.05;;;;;;;16.92;34.43;100210.09;5398666;32;44331;-69
2022/05/29 00:50:48;;;;;;;7.50;1.83;;;;;;;16.48;35.62;100204.13;5393631;32;35358;-66
2022/05/29 00:53:50;;;;;;;3.97;1.25;;;;;;;16.51;36.19;100195.12;5397378;32;35095;-66
2022/05/29 00:56:53;;;;;;;5.80;1.37;;;;;;;16.90;35.29;100190.78;5388852;32;35634;-67
2022/05/29 00:59:56;;;;;;;5.43;1.33;;;;;;;16.91;35.20;100180.03;5398255;32;34920;-67
2022/05/29 01:03:01;;;;;;;4.30;1.52;;;;;;;15.95;37.41;100191.72;5387009;32;34419;-66
2022/05/29 01:06:03;;;;;;;4.37;1.62;;;;;;;16.04;37.25;100192.97;5398635;32;34977;-67
2022/05/29 01:09:07;;;;;;;2.77;1.30;;;;;;;16.01;37.47;100182.53;5390728;32;34850;-66
2022/05/29 01:12:31;;;;;;;4.33;1.47;;;;;;;15.81;38.12;100181.19;5397507;32;34773;-66
2022/05/29 01:15:42;;;;;;;4.37;1.20;;;;;;;15.47;38.69;100182.44;5383850;32;35746;-67
2022/05/29 01:18:55;;;;;;;3.40;1.60;;;;;;;16.38;36.83;100181.00;5404247;32;43121;-67
2022/05/29 01:22:12;;;;;;;5.27;1.43;;;;;;;16.58;36.96;100174.34;5399783;32;34219;-66
2022/05/29 01:25:29;;;;;;;6.20;1.60;;;;;;;15.33;39.42;100186.78;5391849;32;34088;-67
2022/05/29 01:28:51;;;;;;;3.77;1.50;;;;;;;15.03;41.33;100184.22;5385737;32;35121;-69
2022/05/29 01:31:57;;;;;;;4.80;1.50;;;;;;;15.80;39.95;100180.31;5382378;32;44865;-69
2022/05/29 01:35:06;;;;;;;3.60;1.70;;;;;;;15.75;39.41;100182.41;5367623;32;34973;-67
2022/05/29 01:38:11;;;;;;;4.43;1.53;;;;;;;17.11;37.05;100181.31;5400637;32;34577;-66
2022/05/29 01:41:43;;;;;;;4.73;1.63;;;;;;;16.12;39.29;100186.19;5382752;32;34555;-69
2022/05/29 01:44:51;;;;;;;4.30;1.80;;;;;;;15.73;40.17;100183.47;5380291;32;35209;-70
2022/05/29 01:48:04;;;;;;;4.20;1.70;;;;;;;15.69;40.53;100181.00;5387666;32;34448;-66
2022/05/29 01:51:29;;;;;;;5.27;1.83;;;;;;;16.18;39.79;100184.94;5386294;32;35286;-66
2022/05/29 01:54:35;;;;;;;11.63;1.83;;;;;;;15.57;41.31;100183.53;5409202;32;35008;-70
2022/05/29 01:57:42;;;;;;;3.50;1.60;;;;;;;15.67;41.20;100196.16;5375179;32;35681;-70
2022/05/29 02:00:46;;;;;;;4.75;1.95;;;;;;;16.10;40.47;100192.53;5393627;32;47015;-67
2022/05/29 02:03:50;;;;;;;5.23;1.70;;;;;;;15.49;41.61;100189.31;5381579;32;34414;-66
2022/05/29 02:10:48;;;;;;;4.83;1.73;;;;;;;15.93;39.80;100186.53;5397459;32;44735;-69
2022/05/29 02:14:04;;;;;;;3.20;1.23;;;;;;;15.67;40.26;100185.56;5380397;32;44447;-69
2022/05/29 02:17:16;;;;;;;5.33;1.40;;;;;;;15.54;40.67;100183.75;5401332;32;34620;-70
2022/05/29 02:20:34;;;;;;;4.85;1.42;;;;;;;16.32;39.26;100176.09;5413411;32;45079;-67
2022/05/29 02:23:43;;;;;;;2.00;1.37;;;;;;;16.98;38.46;100170.69;5381257;32;35332;-67
2022/05/29 02:26:50;;;;;;;5.20;1.53;;;;;;;17.00;38.20;100165.28;5401659;32;44563;-66
2022/05/29 02:29:54;;;;;;;4.23;1.50;;;;;;;15.77;40.96;100171.72;5377152;32;35433;-71
2022/05/29 02:33:07;;;;;;;5.03;1.70;;;;;;;15.57;42.06;100163.19;5396516;32;34220;-66
2022/05/29 02:36:22;;;;;;;4.17;1.30;;;;;;;16.05;41.06;100176.94;5395360;32;33984;-69
2022/05/29 02:39:24;;;;;;;5.10;1.40;;;;;;;15.59;42.36;100161.31;5400930;32;37162;-68
2022/05/29 02:42:32;;;;;;;5.53;1.60;;;;;;;15.92;42.13;100166.28;5415565;32;35156;-67
2022/05/29 02:45:57;;;;;;;6.63;1.67;;;;;;;16.72;40.01;100153.91;5394790;32;34659;-66
2022/05/29 02:49:06;;;;;;;9.10;1.87;;;;;;;16.19;41.38;100149.53;5402757;32;35305;-71
2022/05/29 02:52:16;;;;;;;4.80;1.57;;;;;;;15.28;43.48;100151.81;5400402;32;35265;-70
2022/05/29 02:55:20;;;;;;;4.93;1.67;;;;;;;15.21;43.80;100162.87;5369022;32;44841;-67
2022/05/29 02:58:26;;;;;;;3.47;1.30;;;;;;;15.38;43.47;100154.72;5410675;32;35399;-71
2022/05/29 03:02:04;;;;;;;4.37;1.20;;;;;;;15.73;42.70;100156.97;5370644;32;34614;-70
2022/05/29 03:05:46;;;;;;;5.43;1.50;;;;;;;16.05;41.76;100152.25;5323465;32;35575;-70
2022/05/29 03:09:02;;;;;;;6.30;1.80;;;;;;;15.67;42.42;100159.06;5373119;32;35346;-67
2022/05/29 03:12:32;;;;;;;2.40;1.50;;;;;;;15.27;42.87;100155.41;5391865;32;34411;-66
2022/05/29 03:15:51;;;;;;;5.23;1.80;;;;;;;15.36;42.17;100140.72;5378545;32;35455;-67
2022/05/29 03:18:58;;;;;;;4.40;1.40;;;;;;;15.61;41.07;100140.88;5390975;32;44748;-70
2022/05/29 03:22:16;;;;;;;2.77;1.30;;;;;;;16.31;40.29;100134.63;5386797;32;34884;-71
2022/05/29 03:25:37;;;;;;;5.43;1.67;;;;;;;15.56;42.12;100137.66;5408065;32;44471;-69
2022/05/29 03:28:44;;;;;;;4.50;1.50;;;;;;;15.75;41.15;100134.72;5386885;32;34685;-66
2022/05/29 03:31:48;;;;;;;3.80;1.47;;;;;;;15.45;42.41;100133.03;5381936;32;45375;-66
2022/05/29 03:34:53;;;;;;;2.90;1.10;;;;;;;15.13;42.72;100131.56;5395952;32;34215;-71
2022/05/29 03:37:56;;;;;;;3.47;1.40;;;;;;;15.36;42.64;100128.34;5400716;32;34455;-70
2022/05/29 03:40:59;;;;;;;4.87;1.50;;;;;;;15.31;43.33;100125.13;5401075;32;35443;-66
2022/05/29 03:44:01;;;;;;;5.25;2.60;;;;;;;14.82;44.79;100116.72;5378107;32;35123;-66
2022/05/29 03:47:03;;;;;;;3.97;1.33;;;;;;;15.06;44.39;100132.88;5398283;32;34653;-69
2022/05/29 03:50:08;;;;;;;5.10;1.70;;;;;;;14.88;44.75;100126.94;5384456;32;34352;-70
2022/05/29 03:53:11;;;;;;;5.23;1.70;;;;;;;15.07;45.32;100124.87;5394788;32;36933;-70
2022/05/29 03:56:13;;;;;;;5.57;1.90;;;;;;;15.51;44.54;100126.50;5384521;32;34976;-70
2022/05/29 03:59:15;;;;;;;4.77;2.10;;;;;;;15.49;44.91;100123.09;5399457;32;44468;-66
2022/05/29 04:02:18;;;;;;;6.43;2.40;;;;;;;15.06;45.85;100132.88;5393829;32;34926;-69
2022/05/29 04:05:22;;;;;;;7.65;2.67;;;;;;;15.24;45.81;100138.84;5394938;32;34005;-69
2022/05/29 04:12:04;;;;;;;9.63;3.00;;;;;;;15.26;46.00;100127.19;5403647;32;45409;-67
2022/05/29 04:15:06;;;;;;;5.50;2.20;;;;;;;15.20;46.43;100137.31;5397851;32;34061;-67
2022/05/29 04:18:08;;;;;;;6.07;2.25;;;;;;;14.89;47.07;100129.50;5398896;32;34671;-70
2022/05/29 04:21:11;;;;;;;6.37;2.57;;;;;;;15.31;46.17;100134.84;5400446;32;34911;-70
2022/05/29 04:24:15;;;;;;;9.10;2.15;;;;;;;15.23;45.84;100126.56;5405066;32;33712;-70
2022/05/29 04:27:17;;;;;;;6.40;2.27;;;;;;;15.18;45.97;100134.78;5401942;32;45304;-70
2022/05/29 04:30:20;;;;;;;6.53;2.73;;;;;;;15.66;44.39;100141.47;5381931;32;34563;-67
2022/05/29 04:33:22;;;;;;;4.27;2.40;;;;;;;14.58;47.08;100148.16;5396236;32;35328;-66
2022/05/29 04:36:24;;;;;;;9.13;2.97;;;;;;;15.06;46.12;100146.97;5396897;32;35276;-69
2022/05/29 04:39:26;;;;;;;7.35;2.50;;;;;;;15.33;45.11;100156.81;5414294;32;35289;-67
2022/05/29 04:42:29;;;;;;;4.22;1.90;;;;;;;15.55;44.08;100151.84;5391459;32;34741;-71
2022/05/29 04:45:31;;;;;;;6.20;2.60;;;;;;;15.61;43.18;100156.78;5397377;32;34785;-71
2022/05/29 04:48:33;;;;;;;4.80;1.70;;;;;;;15.77;41.91;100159.31;5395173;32;35010;-71
2022/05/29 04:51:35;;;;;;;5.00;1.87;;;;;;;16.48;39.97;100155.53;5390048;32;34382;-70
2022/05/29 04:54:38;;;;;;;3.13;1.70;;;;;;;15.77;40.61;100161.09;5404386;32;36460;-70
2022/05/29 04:57:40;;;;;;;5.18;1.80;;;;;;;15.50;41.31;100161.03;5373476;32;34710;-66
2022/05/29 05:00:42;;;;;;;5.47;1.40;;;;;;;15.52;40.36;100162.66;5408002;32;35556;-71
2022/05/29 05:03:45;;;;;;;4.67;1.50;;;;;;;15.02;41.70;100163.16;5395872;32;45451;-70
2022/05/29 05:06:47;;;;;;;3.43;1.50;;;;;;;16.07;39.28;100156.47;5397655;32;35529;-67
2022/05/29 05:09:49;;;;;;;6.97;1.80;;;;;;;16.63;38.67;100148.34;5401935;32;35290;-69
2022/05/29 05:12:52;;;;;;;3.95;1.50;;;;;;;16.49;38.94;100151.94;5391171;32;34222;-70
2022/05/29 05:16:01;;;;;;;3.85;1.45;;;;;;;17.01;37.54;100137.78;5409720;32;34779;-69
2022/05/29 05:19:04;;;;;;;4.27;1.57;;;;;;;17.16;37.34;100131.41;5375657;32;34990;-67
2022/05/29 05:22:08;;;;;;;6.13;1.60;;;;;;;16.98;37.10;100138.84;5416249;32;34230;-67
2022/05/29 05:25:11;;;;;;;3.70;1.60;;;;;;;16.37;37.97;100145.66;5399733;32;34914;-68
2022/05/29 05:28:13;;;;;;;5.63;1.73;;;;;;;16.65;37.60;100136.69;5385328;32;33753;-70
2022/05/29 05:31:15;;;;;;;3.60;1.50;;;;;;;15.99;38.42;100140.25;5400998;32;44284;-67
2022/05/29 05:34:18;;;;;;;7.37;1.45;;;;;;;16.24;37.19;100134.16;5397042;32;33929;-70
2022/05/29 05:37:20;;;;;;;3.20;1.60;;;;;;;15.65;38.52;100139.78;5414941;32;34972;-71
2022/05/29 05:40:22;;;;;;;4.93;1.60;;;;;;;16.42;37.05;100124.09;5397334;32;35138;-66
2022/05/29 05:43:25;;;;;;;3.40;1.40;;;;;;;16.22;37.58;100136.91;5397616;32;34347;-69
2022/05/29 05:46:27;;;;;;;4.18;1.75;;;;;;;16.11;36.98;100131.47;5395807;32;35360;-66
2022/05/29 05:49:29;;;;;;;2.73;1.37;;;;;;;16.14;37.49;100130.41;5400673;32;35515;-66
2022/05/29 05:52:31;;;;;;;5.83;1.57;;;;;;;16.82;36.18;100126.75;5408299;32;35380;-67
2022/05/29 05:55:36;;;;;;;4.45;1.35;;;;;;;16.24;36.57;100128.87;5377544;32;34916;-66
2022/05/29 05:58:43;;;;;;;3.47;1.20;;;;;;;16.19;36.73;100123.84;5408716;32;35411;-66
2022/05/29 06:01:45;;;;;;;6.03;1.50;;;;;;;16.71;35.38;100117.72;5398983;32;46733;-70
2022/05/29 06:04:47;;;;;;;2.47;1.23;;;;;;;17.96;32.85;100107.06;5406149;32;34545;-66
2022/05/29 06:07:50;;;;;;;4.33;1.70;;;;;;;16.37;35.95;100131.56;5410008;32;34091;-69
2022/05/29 06:10:52;;;;;;;3.58;1.52;;;;;;;16.69;35.50;100122.25;5386521;32;34604;-67
2022/05/29 06:13:55;;;;;;;5.30;1.73;;;;;;;16.56;35.56;100120.56;5415414;32;35227;-65
2022/05/29 06:16:58;;;;;;;4.30;1.40;;;;;;;17.22;34.40;100120.34;5395444;32;34531;-70
2022/05/29 06:20:01;;;;;;;4.72;1.60;;;;;;;16.74;35.25;100120.19;5414981;32;34813;-72
2022/05/29 06:23:03;;;;;;;2.17;1.33;;;;;;;16.15;35.81;100127.66;5385244;32;35327;-67
2022/05/29 06:26:07;;;;;;;2.80;1.40;;;;;;;16.54;35.74;100120.62;5405403;32;34834;-67
2022/05/29 06:29:10;;;;;;;2.37;1.40;;;;;;;17.06;35.10;100106.44;5409906;32;35172;-67
2022/05/29 06:32:15;;;;;;;5.85;1.83;;;;;;;17.45;34.41;100121.38;5394379;32;34973;-66
2022/05/29 06:35:17;;;;;;;4.25;1.58;;;;;;;17.30;35.08;100117.12;5412026;32;44689;-68
2022/05/29 06:38:19;;;;;;;5.97;1.40;;;;;;;17.56;33.64;100120.59;5399524;32;34570;-71
2022/05/29 06:41:23;;;;;;;2.00;0.97;;;;;;;18.38;31.13;100117.16;5414227;32;34841;-67
2022/05/29 06:44:25;;;;;;;2.30;1.08;;;;;;;18.97;29.84;100123.34;5400093;32;34592;-66
2022/05/29 06:47:27;;;;;;;2.33;1.05;;;;;;;18.55;30.60;100123.03;5389431;32;34503;-66
2022/05/29 06:50:29;;;;;;;4.03;1.17;;;;;;;18.89;30.39;100121.28;5386174;32;34675;-70
2022/05/29 06:53:32;;;;;;;2.37;1.20;;;;;;;18.53;30.30;100119.59;5396251;32;34558;-67
2022/05/29 06:56:34;;;;;;;1.50;0.80;;;;;;;18.40;30.03;100122.34;5385309;32;34867;-67
2022/05/29 07:09:40;;;;;;;4.18;1.62;;;;;;;18.69;29.30;100098.88;5399568;32;35525;-73
2022/05/29 07:12:43;;;;;;;3.65;1.23;;;;;;;19.79;27.91;100111.44;5415680;32;34737;-66
2022/05/29 07:15:45;;;;;;;2.95;0.90;;;;;;;19.66;27.99;100110.75;5386501;32;46422;-68
2022/05/29 07:18:50;;;;;;;4.10;1.10;;;;;;;19.60;27.94;100105.91;5413340;32;35613;-71
2022/05/29 07:21:57;;;;;;;2.75;1.10;;;;;;;21.28;25.37;100094.31;5404756;32;34775;-70
2022/05/29 07:24:59;;;;;;;4.00;1.15;;;;;;;20.95;25.49;100090.97;5397852;32;35163;-71
2022/05/29 07:28:01;;;;;;;1.58;1.08;;;;;;;21.44;24.90;100092.00;5403153;32;159759;-67
2022/05/29 07:31:03;;;;;;;1.90;1.10;;;;;;;21.73;24.91;100092.06;5391185;32;35755;-66
2022/05/29 07:34:05;;;;;;;3.40;1.20;;;;;;;21.53;24.75;100093.88;5411143;32;34879;-67
2022/05/29 07:37:10;;;;;;;3.78;1.17;;;;;;;20.58;26.55;100097.78;5395735;32;34300;-70
2022/05/29 07:40:13;;;;;;;3.65;1.20;;;;;;;20.58;26.65;100095.09;5402472;32;35101;-70
2022/05/29 07:43:22;;;;;;;3.03;0.90;;;;;;;19.13;28.94;100092.75;5401929;32;44439;-71
2022/05/29 07:46:24;;;;;;;3.53;1.05;;;;;;;21.19;26.42;100087.09;5390896;32;35255;-67
2022/05/29 07:49:27;;;;;;;2.08;0.98;;;;;;;20.65;27.08;100088.25;5414224;32;34737;-67
2022/05/29 07:52:29;;;;;;;2.90;1.17;;;;;;;19.68;28.28;100092.78;5390702;32;34999;-67
2022/05/29 07:55:32;;;;;;;2.12;0.90;;;;;;;20.77;26.71;100080.03;5392706;32;35299;-68
2022/05/29 07:58:34;;;;;;;;;;;;;;;21.24;26.22;100077.69;5391804;32;35260;-66
2022/05/29 08:01:36;;;;;;;3.58;1.12;;;;;;;21.74;25.56;100071.53;5404227;32;34965;-67
2022/05/29 08:04:39;;;;;;;2.90;0.90;;;;;;;21.52;25.36;100073.47;5405452;32;35316;-67
2022/05/29 08:07:43;;;;;;;1.73;1.00;;;;;;;21.16;25.83;100072.19;5390025;32;35075;-67
2022/05/29 08:10:45;;;;;;;2.20;1.10;;;;;;;21.22;25.71;100070.81;5393123;32;44561;-67
2022/05/29 08:13:47;;;;;;;4.05;1.20;;;;;;;20.33;26.97;100073.12;5396142;32;34581;-67
2022/05/29 08:16:49;;;;;;;3.80;1.20;;;;;;;18.95;29.66;100072.88;5409604;32;35227;-71
2022/05/29 08:19:51;;;;;;;3.53;1.10;;;;;;;20.08;28.13;100078.84;5377795;32;34797;-70
2022/05/29 08:22:54;;;;;;;2.58;0.90;;;;;;;20.76;26.93;100061.47;5401312;32;35607;-67
2022/05/29 08:32:37;;;;;;;1.77;0.85;;;;;;;20.97;26.20;100056.94;5398027;32;34527;-70
2022/05/29 08:35:41;;;;;;;3.12;1.00;;;;;;;21.40;24.98;100053.19;5396542;32;34619;-70
2022/05/29 08:38:47;;;;;;;2.22;0.95;;;;;;;20.62;25.92;100054.66;5388528;32;36447;-67
2022/05/29 08:41:52;;;;;;;4.53;1.08;;;;;;;21.60;24.80;100062.91;5390353;32;44761;-69
2022/05/29 08:44:55;;;;;;;2.45;1.02;;;;;;;21.30;25.08;100052.28;5397919;32;35255;-70
2022/05/29 08:47:58;;;;;;;;;;;;;;;21.38;24.86;100049.78;5410665;32;35241;-66
2022/05/29 08:51:19;;;;;;;12.10;1.67;;;;;;;21.49;24.94;100047.00;5391922;32;35744;-67
2022/05/29 08:54:43;;;;;;;2.78;1.30;;;;;;;21.36;25.01;100047.25;5384719;32;45003;-69
2022/05/29 08:58:06;;;;;;;4.87;1.12;;;;;;;20.65;26.01;100065.06;5402607;32;47055;-67
2022/05/29 09:01:39;;;;;;;4.10;1.30;;;;;;;20.97;25.63;100042.72;5387182;32;34816;-68
2022/05/29 09:05:01;;;;;;;;;;;;;;;20.31;26.79;100048.41;5412736;32;34597;-67
2022/05/29 09:08:09;;;;;;;2.67;1.15;;;;;;;20.69;25.98;100044.31;5378307;32;35313;-70
2022/05/29 09:11:16;;;;;;;1.33;0.95;;;;;;;21.20;25.47;100043.38;5392634;32;35161;-68
2022/05/29 09:14:41;;;;;;;1.73;1.00;;;;;;;21.05;25.37;100041.06;5394766;32;46035;-71
2022/05/29 09:17:50;;;;;;;4.80;1.40;;;;;;;20.90;26.09;100036.25;5400700;32;34893;-67
2022/05/29 09:20:58;;;;;;;2.95;1.20;;;;;;;19.91;27.93;100057.09;5395118;32;44222;-68
2022/05/29 09:24:07;;;;;;;1.62;0.95;;;;;;;20.54;26.77;100043.78;5387825;32;35049;-67
2022/05/29 09:27:10;;;;;;;2.87;1.02;;;;;;;20.73;26.06;100037.69;5383532;32;35297;-67
2022/05/29 09:30:13;;;;;;;4.57;1.40;;;;;;;20.76;26.13;100043.63;5413648;32;35166;-68
2022/05/29 09:33:26;;;;;;;5.45;1.52;;;;;;;21.40;25.68;100022.94;5390485;32;44479;-68
2022/05/29 09:36:35;;;;;;;;;;;;;;;20.77;26.59;100031.97;5415863;32;34656;-67
2022/05/29 09:39:57;;;;;;;1.30;1.00;;;;;;;21.67;25.10;100030.28;5403968;32;34714;-66
2022/05/29 09:43:17;;;;;;;2.85;0.98;;;;;;;22.37;23.98;100019.25;5399111;32;34770;-67
2022/05/29 09:46:22;;;;;;;2.62;1.00;;;;;;;21.63;25.10;100022.50;5401210;32;48197;-66
2022/05/29 09:49:45;;;;;;;3.03;1.02;;;;;;;22.03;24.51;100026.91;5399407;32;34704;-72
2022/05/29 09:52:47;;;;;;;;;;;;;;;22.34;24.24;100016.84;5393424;32;44473;-67
2022/05/29 09:55:58;;;;;;;4.72;1.20;;;;;;;22.31;23.88;100019.00;5376933;32;35055;-69
2022/05/29 09:59:04;;;;;;;4.60;1.40;;;;;;;22.12;24.25;100007.34;5398819;32;34695;-67
2022/05/29 10:02:14;;;;;;;2.20;1.15;;;;;;;22.20;24.30;100014.63;5406394;32;34870;-73
2022/05/29 10:05:27;;;;;;;3.87;1.27;;;;;;;21.69;25.28;100014.91;5393531;32;44822;-67
2022/05/29 10:08:31;;;;;;;4.18;1.00;;;;;;;21.74;25.35;100004.66;5393593;32;38389;-70
2022/05/29 10:11:34;;;;;;;3.53;1.27;;;;;;;21.58;25.82;100006.06;5391847;32;34248;-70
2022/05/29 10:14:39;;;;;;;2.70;1.30;;;;;;;22.53;24.44;100005.25;5378638;32;35470;-67
2022/05/29 10:17:43;;;;;;;3.72;1.30;;;;;;;20.33;27.03;100003.75;5398722;32;34208;-72
2022/05/29 10:20:46;;;;;;;2.30;1.23;;;;;;;21.58;25.12;100002.56;5399023;32;44193;-70
2022/05/29 10:23:52;;;;;;;2.58;1.25;;;;;;;22.21;24.07;99996.75;5393992;32;34774;-67
2022/05/29 10:27:00;;;;;;;3.22;1.12;;;;;;;22.98;23.31;99999.19;5385627;32;34599;-70
2022/05/29 10:30:09;;;;;;;5.82;1.17;;;;;;;21.37;24.74;99994.63;5379344;32;35386;-67
2022/05/29 10:33:22;;;;;;;3.03;1.20;;;;;;;20.96;25.80;99995.63;5395975;32;34932;-66
2022/05/29 10:36:27;;;;;;;1.75;1.00;;;;;;;22.12;24.45;99998.47;5373843;32;46391;-71
2022/05/29 10:39:31;;;;;;;2.72;1.30;;;;;;;22.71;23.99;99991.94;5416098;32;34747;-68
2022/05/29 10:42:47;;;;;;;4.87;1.20;;;;;;;22.04;24.75;99987.59;5390732;32;35124;-67
2022/05/29 10:45:49;;;;;;;5.07;1.67;;;;;;;22.56;23.90;99993.44;5385154;32;45561;-67
2022/05/29 10:49:35;;;;;;;1.10;0.85;;;;;;;22.51;23.68;100012.59;5407485;32;34705;-72
2022/05/29 10:52:48;;;;;;;3.28;1.10;;;;;;;21.31;24.63;100004.03;5386901;32;34791;-70
2022/05/29 10:56:02;;;;;;;3.12;1.02;;;;;;;22.22;23.93;99991.28;5387502;32;45887;-71
2022/05/29 10:59:42;;;;;;;8.23;1.20;;;;;;;22.20;23.87;99977.16;5401045;32;35115;-71
2022/05/29 11:03:17;;;;;;;2.22;1.00;;;;;;;22.26;24.11;99981.09;5390145;32;34246;-70
2022/05/29 11:06:56;;;;;;;3.42;1.95;;;;;;;20.63;26.56;99986.94;5406813;32;34362;-67
2022/05/29 11:10:24;;;;;;;3.25;1.30;;;;;;;21.72;25.13;99983.41;5405828;32;34711;-68
2022/05/29 11:13:26;;;;;;;5.00;1.10;;;;;;;20.83;26.58;99974.50;5391458;32;34246;-67
2022/05/29 11:16:41;;;;;;;4.40;1.30;;;;;;;21.09;26.20;99973.03;5410791;32;34749;-66
2022/05/29 11:20:10;;;;;;;6.18;1.25;;;;;;;20.42;26.70;99976.28;5397344;32;34557;-70
2022/05/29 11:23:23;;;;;;;4.37;1.02;;;;;;;21.18;25.65;99971.34;5397390;32;36927;-70
2022/05/29 11:26:53;;;;;;;2.78;1.27;;;;;;;21.49;25.05;99972.13;5406026;32;34618;-70
2022/05/29 11:30:05;;;;;;;2.53;1.00;;;;;;;21.40;25.22;99961.44;5385381;32;34795;-67
2022/05/29 11:33:13;;;;;;;3.67;1.27;;;;;;;21.75;24.46;99964.38;5403681;32;34334;-71
2022/05/29 11:36:57;;;;;;;2.55;1.00;;;;;;;20.80;25.85;99964.06;5399652;32;45157;-67
2022/05/29 11:40:23;;;;;;;3.75;1.00;;;;;;;19.83;27.43;99958.19;5362144;32;34614;-67
2022/05/29 11:43:58;;;;;;;3.17;1.23;;;;;;;21.51;25.34;99950.59;5411301;32;34946;-68
2022/05/29 11:54:10;;;;;;;2.55;1.10;;;;;;;21.49;24.77;99950.75;5413907;32;34765;-67
2022/05/29 11:57:19;;;;;;;5.05;1.60;;;;;;;21.53;24.84;99954.00;5351742;32;34800;-66
2022/05/29 12:00:35;;;;;;;3.55;1.30;;;;;;;21.53;25.21;99957.50;5395603;32;45099;-69
2022/05/29 12:03:56;;;;;;;2.58;1.10;;;;;;;22.04;24.51;99950.16;5400320;32;34559;-71
2022/05/29 12:07:17;;;;;;;3.90;0.88;;;;;;;21.05;25.60;99931.53;5398854;32;34640;-71
2022/05/29 12:10:22;;;;;;;7.97;1.10;;;;;;;22.23;24.23;99920.69;5377119;32;45989;-67
2022/05/29 12:13:29;;;;;;;2.17;1.10;;;;;;;21.60;24.83;99920.34;5399326;32;34983;-68
2022/05/29 12:16:33;;;;;;;2.10;1.10;;;;;;;22.13;24.12;99928.72;5395143;32;34428;-71
2022/05/29 12:19:44;;;;;;;2.62;1.10;;;;;;;21.75;24.20;99926.09;5395049;32;35304;-67
2022/05/29 12:22:49;;;;;;;2.75;1.30;;;;;;;22.17;24.34;99916.75;5379637;32;44972;-70
2022/05/29 12:26:06;;;;;;;1.98;1.02;;;;;;;20.39;27.41;99920.47;5407580;32;35010;-70
2022/05/29 12:29:20;;;;;;;3.22;1.33;;;;;;;21.12;26.61;99920.28;5382502;32;36378;-68
2022/05/29 12:32:31;;;;;;;2.78;1.15;;;;;;;21.67;26.00;99923.31;5378938;32;44415;-67
2022/05/29 12:35:49;;;;;;;3.15;1.30;;;;;;;21.49;25.49;99921.31;5406472;32;35597;-67
2022/05/29 12:38:55;;;;;;;3.87;1.20;;;;;;;22.25;24.06;99917.84;5397238;32;45147;-70
2022/05/29 12:42:44;;;;;;;6.95;1.62;;;;;;;22.30;23.82;99919.09;5399187;32;34560;-67
2022/05/29 12:46:06;;;;;;;1.98;1.20;;;;;;;21.04;25.77;99919.16;5346476;32;34897;-71
2022/05/29 12:49:33;;;;;;;4.05;1.27;;;;;;;21.12;26.19;99922.97;5375002;32;34937;-72
2022/05/29 12:53:23;;;;;;;1.58;0.95;;;;;;;21.36;25.84;99916.25;5412333;32;34833;-67
2022/05/29 12:56:33;;;;;;;1.80;1.17;;;;;;;21.55;25.89;99923.44;5351647;32;34553;-68
2022/05/29 12:59:56;;;;;;;4.90;1.55;;;;;;;22.64;23.81;99926.56;5377243;32;34200;-68
2022/05/29 13:03:12;;;;;;;2.50;1.00;;;;;;;22.12;24.61;99920.84;5413075;32;35128;-67
2022/05/29 13:06:26;;;;;;;5.40;1.33;;;;;;;21.20;25.25;99917.78;5399311;32;38046;-69
2022/05/29 13:10:16;;;;;;;5.03;1.50;;;;;;;20.16;27.48;99921.66;5391082;32;35279;-70
2022/05/29 13:13:22;;;;;;;7.00;1.12;;;;;;;20.62;27.47;99928.34;5395917;32;34893;-71
2022/05/29 13:16:30;;;;;;;3.75;1.30;;;;;;;19.91;28.49;99928.25;5395564;32;35006;-69
2022/05/29 13:19:59;;;;;;;6.00;1.23;;;;;;;21.39;25.89;99917.81;5404500;32;34707;-70
2022/05/29 13:23:06;;;;;;;2.90;0.98;;;;;;;21.40;25.91;99919.50;5395970;32;33960;-67
2022/05/29 13:26:08;;;;;;;7.20;1.20;;;;;;;21.28;25.57;99934.84;5390004;32;34477;-67
2022/05/29 13:29:36;;;;;;;5.07;1.10;;;;;;;19.65;27.79;99920.62;5412754;32;34754;-69
2022/05/29 13:32:38;;;;;;;2.55;0.93;;;;;;;20.43;26.96;99921.91;5393744;32;36082;-70
2022/05/29 13:35:42;;;;;;;2.22;0.90;;;;;;;21.23;25.20;99926.34;5373520;32;35052;-70
2022/05/29 13:38:44;;;;;;;2.37;1.08;;;;;;;20.58;25.84;99918.91;5391906;32;34770;-67
2022/05/29 13:41:56;;;;;;;3.20;1.12;;;;;;;20.42;26.27;99912.22;5391630;32;45323;-70
2022/05/29 13:44:59;;;;;;;1.85;1.20;;;;;;;20.72;25.85;99914.03;5415446;32;34912;-68
2022/05/29 13:48:29;;;;;;;5.78;1.10;;;;;;;20.71;25.49;99907.00;5393912;32;34204;-67
2022/05/29 13:51:41;;;;;;;3.25;1.90;;;;;;;20.17;26.43;99907.31;5393374;32;34584;-66
2022/05/29 13:54:45;;;;;;;2.92;1.10;;;;;;;19.57;27.47;99900.88;5385532;32;34926;-69
2022/05/29 14:04:44;;;;;;;1.67;1.02;;;;;;;21.05;25.21;99871.91;5386238;32;35361;-70
2022/05/29 14:08:18;;;;;;;2.95;1.15;;;;;;;20.90;25.56;99879.50;5386351;32;44866;-67
2022/05/29 14:11:21;;;;;;;2.17;1.00;;;;;;;19.04;28.21;99887.53;5406599;32;45206;-67
2022/05/29 14:14:29;;;;;;;1.73;1.17;;;;;;;20.43;26.25;99881.88;5399899;32;34855;-68
2022/05/29 14:17:33;;;;;;;3.85;1.23;;;;;;;21.12;25.22;99880.22;5409745;32;35333;-71
2022/05/29 14:21:15;;;;;;;4.53;1.20;;;;;;;19.67;27.30;99875.16;5403426;32;35228;-67
2022/05/29 14:24:33;;;;;;;2.70;1.23;;;;;;;19.61;27.67;99863.19;5389121;32;34705;-68
2022/05/29 14:28:04;;;;;;;0.80;0.80;;;;;;;19.81;27.48;99871.31;5408357;32;35081;-70
2022/05/29 14:31:31;;;;;;;3.37;1.25;;;;;;;20.88;26.05;99870.78;5378052;32;34566;-67
2022/05/29 14:34:43;;;;;;;3.35;1.10;;;;;;;20.82;26.00;99876.66;5397228;32;34778;-66
2022/05/29 14:38:02;;;;;;;2.47;0.98;;;;;;;20.12;26.99;99864.19;5416415;32;44649;-69
2022/05/29 14:41:26;;;;;;;1.98;1.00;;;;;;;20.11;27.13;99875.84;5384937;32;35338;-71
2022/05/29 14:44:50;;;;;;;1.87;1.02;;;;;;;19.51;28.27;99874.72;5403164;32;34761;-72
2022/05/29 14:48:06;;;;;;;4.00;1.20;;;;;;;20.20;26.98;99875.88;5413924;32;44658;-70
2022/05/29 14:51:20;;;;;;;2.00;1.00;;;;;;;19.95;27.63;99863.81;5390243;32;34866;-71
2022/05/29 14:54:34;;;;;;;1.87;1.08;;;;;;;19.62;28.34;99858.72;5389992;32;44512;-67
2022/05/29 14:57:57;;;;;;;2.12;1.02;;;;;;;19.08;29.21;99879.16;5394770;32;34604;-67
2022/05/29 15:01:07;;;;;;;2.00;1.00;;;;;;;19.51;28.53;99867.56;5386414;32;35385;-66
2022/05/29 15:04:14;;;;;;;2.67;1.33;;;;;;;19.63;28.20;99865.72;5415129;32;36791;-72
2022/05/29 15:10:55;;;;;;;3.53;1.02;;;;;;;19.17;29.28;99869.56;5405637;32;45565;-67
2022/05/29 15:13:58;;;;;;;2.78;1.35;;;;;;;19.81;28.41;99857.97;5392205;32;34156;-67
2022/05/29 15:17:01;;;;;;;4.45;1.20;;;;;;;19.44;29.00;99858.41;5385646;32;34744;-71
2022/05/29 15:24:08;;;;;;;5.70;1.40;;;;;;;19.04;30.06;99860.91;5394427;32;34243;-67
2022/05/29 15:26:57;;;;;;;3.03;1.20;;;;;;;18.68;32.74;99857.63;5402052;32;46059;-72
2022/05/29 15:29:59;;;;;;;3.35;1.20;;;;;;;19.43;31.85;99852.22;5402164;32;34956;-68
2022/05/29 15:33:04;;;;;;;3.72;1.23;;;;;;;18.63;34.26;99857.97;5396493;32;36172;-68